sensor_id;sensor_type;location;lat;lon;timestamp;P1;durP1;ratioP1;P2;durP2;ratioP2
7835;SDS011;3963;42.658;23.298;2022-09-09T00:02:24;14.77;;;10.30;;
7835;SDS011;3963;42.658;23.298;2022-09-09T00:04:57;11.43;;;9.30;;
7835;SDS011;3963;42.658;23.298;2022-09-09T00:07:31;12.43;;;9.77;;
7835;SDS011;3963;42.658;23.298;2022-09-09T00:10:09;13.73;;;9.10;;
7835;SDS011;3963;42.658;23.298;2022-09-09T00:12:47;12.80;;;10.07;;
7835;SDS011;3963;42.658;23.298;2022-09-09T00:15:22;17.13;;;10.63;;
7835;SDS011;3963;42.658;23.298;2022-09-09T00:17:52;13.57;;;9.40;;
7835;SDS011;3963;42.658;23.298;2022-09-09T00:20:25;14.83;;;9.57;;
7835;SDS011;3963;42.658;23.298;2022-09-09T00:22:59;12.90;;;9.90;;
7835;SDS011;3963;42.658;23.298;2022-09-09T00:25:33;15.40;;;10.07;;
7835;SDS011;3963;42.658;23.298;2022-09-09T00:28:04;13.20;;;10.20;;
7835;SDS011;3963;42.658;23.298;2022-09-09T00:30:40;11.87;;;9.40;;
7835;SDS011;3963;42.658;23.298;2022-09-09T00:33:09;14.87;;;10.50;;
7835;SDS011;3963;42.658;23.298;2022-09-09T00:35:42;15.00;;;9.90;;
7835;SDS011;3963;42.658;23.298;2022-09-09T00:38:12;14.20;;;10.07;;
7835;SDS011;3963;42.658;23.298;2022-09-09T00:40:45;15.07;;;9.60;;
7835;SDS011;3963;42.658;23.298;2022-09-09T00:43:26;13.30;;;9.67;;
7835;SDS011;3963;42.658;23.298;2022-09-09T00:46:00;15.53;;;10.57;;
7835;SDS011;3963;42.658;23.298;2022-09-09T00:48:42;13.33;;;10.40;;
7835;SDS011;3963;42.658;23.298;2022-09-09T00:51:17;16.30;;;9.53;;
7835;SDS011;3963;42.658;23.298;2022-09-09T00:53:58;13.50;;;9.83;;
7835;SDS011;3963;42.658;23.298;2022-09-09T00:56:40;14.87;;;10.40;;
7835;SDS011;3963;42.658;23.298;2022-09-09T00:59:16;14.20;;;9.97;;
7835;SDS011;3963;42.658;23.298;2022-09-09T01:01:52;13.17;;;10.07;;
7835;SDS011;3963;42.658;23.298;2022-09-09T01:04:22;13.47;;;9.47;;
7835;SDS011;3963;42.658;23.298;2022-09-09T01:06:58;14.20;;;10.07;;
7835;SDS011;3963;42.658;23.298;2022-09-09T01:09:38;13.03;;;9.77;;
7835;SDS011;3963;42.658;23.298;2022-09-09T01:12:15;13.07;;;9.80;;
7835;SDS011;3963;42.658;23.298;2022-09-09T01:14:43;12.07;;;9.70;;
7835;SDS011;3963;42.658;23.298;2022-09-09T01:17:15;15.97;;;10.50;;
7835;SDS011;3963;42.658;23.298;2022-09-09T01:19:52;11.97;;;9.60;;
7835;SDS011;3963;42.658;23.298;2022-09-09T01:22:28;13.63;;;10.70;;
7835;SDS011;3963;42.658;23.298;2022-09-09T01:27:52;13.90;;;10.07;;
7835;SDS011;3963;42.658;23.298;2022-09-09T01:30:22;12.87;;;9.23;;
7835;SDS011;3963;42.658;23.298;2022-09-09T01:32:50;13.97;;;9.30;;
7835;SDS011;3963;42.658;23.298;2022-09-09T01:35:22;13.60;;;10.23;;
7835;SDS011;3963;42.658;23.298;2022-09-09T01:37:58;10.73;;;9.20;;
7835;SDS011;3963;42.658;23.298;2022-09-09T01:40:25;14.93;;;10.00;;
7835;SDS011;3963;42.658;23.298;2022-09-09T01:42:54;11.63;;;9.40;;
7835;SDS011;3963;42.658;23.298;2022-09-09T01:45:22;12.17;;;9.77;;
7835;SDS011;3963;42.658;23.298;2022-09-09T01:47:51;14.87;;;10.07;;
7835;SDS011;3963;42.658;23.298;2022-09-09T01:50:19;15.50;;;11.00;;
7835;SDS011;3963;42.658;23.298;2022-09-09T01:52:51;15.87;;;10.20;;
7835;SDS011;3963;42.658;23.298;2022-09-09T01:55:23;13.27;;;9.90;;
7835;SDS011;3963;42.658;23.298;2022-09-09T01:57:59;14.50;;;10.47;;
7835;SDS011;3963;42.658;23.298;2022-09-09T02:00:44;12.40;;;9.23;;
7835;SDS011;3963;42.658;23.298;2022-09-09T02:03:20;12.70;;;9.67;;
7835;SDS011;3963;42.658;23.298;2022-09-09T02:05:52;15.07;;;10.27;;
7835;SDS011;3963;42.658;23.298;2022-09-09T02:08:28;14.87;;;10.33;;
7835;SDS011;3963;42.658;23.298;2022-09-09T02:11:04;11.70;;;9.50;;
7835;SDS011;3963;42.658;23.298;2022-09-09T02:13:35;13.07;;;10.03;;
7835;SDS011;3963;42.658;23.298;2022-09-09T02:16:04;13.20;;;10.17;;
7835;SDS011;3963;42.658;23.298;2022-09-09T02:18:35;18.90;;;10.83;;
7835;SDS011;3963;42.658;23.298;2022-09-09T02:21:07;14.50;;;11.20;;
7835;SDS011;3963;42.658;23.298;2022-09-09T02:23:36;15.90;;;10.67;;
7835;SDS011;3963;42.658;23.298;2022-09-09T02:26:06;12.37;;;10.67;;
7835;SDS011;3963;42.658;23.298;2022-09-09T02:28:37;20.23;;;11.33;;
7835;SDS011;3963;42.658;23.298;2022-09-09T02:31:07;15.83;;;10.93;;
7835;SDS011;3963;42.658;23.298;2022-09-09T02:33:35;17.53;;;10.90;;
7835;SDS011;3963;42.658;23.298;2022-09-09T02:36:06;14.63;;;9.97;;
7835;SDS011;3963;42.658;23.298;2022-09-09T02:38:36;13.73;;;10.67;;
7835;SDS011;3963;42.658;23.298;2022-09-09T02:41:06;13.50;;;10.60;;
7835;SDS011;3963;42.658;23.298;2022-09-09T02:43:34;16.43;;;10.23;;
7835;SDS011;3963;42.658;23.298;2022-09-09T02:46:06;11.67;;;9.93;;
7835;SDS011;3963;42.658;23.298;2022-09-09T02:48:44;14.80;;;10.20;;
7835;SDS011;3963;42.658;23.298;2022-09-09T02:51:21;14.97;;;10.73;;
7835;SDS011;3963;42.658;23.298;2022-09-09T02:53:54;14.27;;;10.27;;
7835;SDS011;3963;42.658;23.298;2022-09-09T02:56:29;17.03;;;11.53;;
7835;SDS011;3963;42.658;23.298;2022-09-09T02:59:02;16.00;;;11.33;;
7835;SDS011;3963;42.658;23.298;2022-09-09T03:01:33;21.53;;;11.33;;
7835;SDS011;3963;42.658;23.298;2022-09-09T03:04:01;16.60;;;11.10;;
7835;SDS011;3963;42.658;23.298;2022-09-09T03:06:30;14.07;;;10.77;;
7835;SDS011;3963;42.658;23.298;2022-09-09T03:08:56;12.40;;;10.20;;
7835;SDS011;3963;42.658;23.298;2022-09-09T03:11:25;11.90;;;10.13;;
7835;SDS011;3963;42.658;23.298;2022-09-09T03:13:53;13.83;;;10.83;;
7835;SDS011;3963;42.658;23.298;2022-09-09T03:16:21;13.80;;;11.20;;
7835;SDS011;3963;42.658;23.298;2022-09-09T03:18:49;13.40;;;10.47;;
7835;SDS011;3963;42.658;23.298;2022-09-09T03:21:16;18.37;;;11.67;;
7835;SDS011;3963;42.658;23.298;2022-09-09T03:23:43;16.73;;;12.27;;
7835;SDS011;3963;42.658;23.298;2022-09-09T03:26:10;20.27;;;12.80;;
7835;SDS011;3963;42.658;23.298;2022-09-09T03:28:37;16.43;;;12.17;;
7835;SDS011;3963;42.658;23.298;2022-09-09T03:31:04;13.67;;;11.33;;
7835;SDS011;3963;42.658;23.298;2022-09-09T03:33:35;15.43;;;12.43;;
7835;SDS011;3963;42.658;23.298;2022-09-09T03:36:04;15.13;;;11.83;;
7835;SDS011;3963;42.658;23.298;2022-09-09T03:38:32;13.83;;;11.00;;
7835;SDS011;3963;42.658;23.298;2022-09-09T03:40:59;15.23;;;11.27;;
7835;SDS011;3963;42.658;23.298;2022-09-09T03:43:27;17.57;;;11.93;;
7835;SDS011;3963;42.658;23.298;2022-09-09T03:45:55;14.03;;;11.30;;
7835;SDS011;3963;42.658;23.298;2022-09-09T03:48:23;14.67;;;12.50;;
7835;SDS011;3963;42.658;23.298;2022-09-09T03:50:51;13.83;;;11.77;;
7835;SDS011;3963;42.658;23.298;2022-09-09T03:53:21;16.10;;;12.13;;
7835;SDS011;3963;42.658;23.298;2022-09-09T03:55:50;15.33;;;10.83;;
7835;SDS011;3963;42.658;23.298;2022-09-09T03:58:19;15.53;;;11.53;;
7835;SDS011;3963;42.658;23.298;2022-09-09T04:00:52;14.13;;;11.80;;
7835;SDS011;3963;42.658;23.298;2022-09-09T04:03:20;15.40;;;11.33;;
7835;SDS011;3963;42.658;23.298;2022-09-09T04:05:49;16.97;;;11.27;;
7835;SDS011;3963;42.658;23.298;2022-09-09T04:08:16;16.17;;;10.63;;
7835;SDS011;3963;42.658;23.298;2022-09-09T04:10:45;15.97;;;11.93;;
7835;SDS011;3963;42.658;23.298;2022-09-09T04:13:13;19.63;;;11.80;;
7835;SDS011;3963;42.658;23.298;2022-09-09T04:15:41;23.43;;;11.77;;
7835;SDS011;3963;42.658;23.298;2022-09-09T04:18:09;16.33;;;12.20;;
7835;SDS011;3963;42.658;23.298;2022-09-09T04:20:36;20.30;;;12.50;;
7835;SDS011;3963;42.658;23.298;2022-09-09T04:23:03;16.63;;;11.53;;
7835;SDS011;3963;42.658;23.298;2022-09-09T04:25:30;19.90;;;12.43;;
7835;SDS011;3963;42.658;23.298;2022-09-09T04:28:00;15.13;;;12.07;;
7835;SDS011;3963;42.658;23.298;2022-09-09T04:30:28;19.33;;;11.40;;
7835;SDS011;3963;42.658;23.298;2022-09-09T04:32:54;18.47;;;11.63;;
7835;SDS011;3963;42.658;23.298;2022-09-09T04:35:22;16.63;;;12.17;;
7835;SDS011;3963;42.658;23.298;2022-09-09T04:37:49;18.30;;;12.40;;
7835;SDS011;3963;42.658;23.298;2022-09-09T04:40:16;17.20;;;11.83;;
7835;SDS011;3963;42.658;23.298;2022-09-09T04:42:43;17.50;;;11.30;;
7835;SDS011;3963;42.658;23.298;2022-09-09T04:45:13;18.77;;;12.23;;
7835;SDS011;3963;42.658;23.298;2022-09-09T04:47:39;19.17;;;12.80;;
7835;SDS011;3963;42.658;23.298;2022-09-09T04:50:07;18.70;;;13.30;;
7835;SDS011;3963;42.658;23.298;2022-09-09T04:52:35;22.00;;;13.07;;
7835;SDS011;3963;42.658;23.298;2022-09-09T04:55:02;21.40;;;13.47;;
7835;SDS011;3963;42.658;23.298;2022-09-09T04:57:30;17.90;;;12.83;;
7835;SDS011;3963;42.658;23.298;2022-09-09T04:59:58;22.93;;;13.67;;
7835;SDS011;3963;42.658;23.298;2022-09-09T05:02:27;19.07;;;12.57;;
7835;SDS011;3963;42.658;23.298;2022-09-09T05:04:55;16.17;;;13.40;;
7835;SDS011;3963;42.658;23.298;2022-09-09T05:07:22;18.63;;;13.00;;
7835;SDS011;3963;42.658;23.298;2022-09-09T05:09:49;23.17;;;14.27;;
7835;SDS011;3963;42.658;23.298;2022-09-09T05:12:16;19.20;;;14.07;;
7835;SDS011;3963;42.658;23.298;2022-09-09T05:14:42;23.30;;;15.67;;
7835;SDS011;3963;42.658;23.298;2022-09-09T05:17:10;21.47;;;14.17;;
7835;SDS011;3963;42.658;23.298;2022-09-09T05:19:39;24.83;;;19.27;;
7835;SDS011;3963;42.658;23.298;2022-09-09T05:22:06;29.40;;;23.87;;
7835;SDS011;3963;42.658;23.298;2022-09-09T05:24:33;40.17;;;22.80;;
7835;SDS011;3963;42.658;23.298;2022-09-09T05:27:02;28.53;;;21.23;;
7835;SDS011;3963;42.658;23.298;2022-09-09T05:29:31;24.63;;;19.27;;
7835;SDS011;3963;42.658;23.298;2022-09-09T05:31:58;37.60;;;24.17;;
7835;SDS011;3963;42.658;23.298;2022-09-09T05:34:25;23.63;;;18.80;;
7835;SDS011;3963;42.658;23.298;2022-09-09T05:36:54;21.03;;;16.37;;
7835;SDS011;3963;42.658;23.298;2022-09-09T05:39:20;24.97;;;17.50;;
7835;SDS011;3963;42.658;23.298;2022-09-09T05:41:47;21.83;;;16.33;;
7835;SDS011;3963;42.658;23.298;2022-09-09T05:44:14;21.73;;;15.77;;
7835;SDS011;3963;42.658;23.298;2022-09-09T05:46:41;22.60;;;15.40;;
7835;SDS011;3963;42.658;23.298;2022-09-09T05:49:07;18.47;;;13.07;;
7835;SDS011;3963;42.658;23.298;2022-09-09T05:51:35;18.90;;;14.33;;
7835;SDS011;3963;42.658;23.298;2022-09-09T05:54:04;18.53;;;13.87;;
7835;SDS011;3963;42.658;23.298;2022-09-09T05:56:31;22.50;;;14.90;;
7835;SDS011;3963;42.658;23.298;2022-09-09T05:58:59;15.33;;;12.77;;
7835;SDS011;3963;42.658;23.298;2022-09-09T06:01:27;18.90;;;14.10;;
7835;SDS011;3963;42.658;23.298;2022-09-09T06:03:55;16.30;;;13.20;;
7835;SDS011;3963;42.658;23.298;2022-09-09T06:06:22;15.97;;;13.10;;
7835;SDS011;3963;42.658;23.298;2022-09-09T06:08:51;24.03;;;13.60;;
7835;SDS011;3963;42.658;23.298;2022-09-09T06:11:21;18.50;;;12.30;;
7835;SDS011;3963;42.658;23.298;2022-09-09T06:13:49;16.63;;;11.60;;
7835;SDS011;3963;42.658;23.298;2022-09-09T06:16:19;18.00;;;12.70;;
7835;SDS011;3963;42.658;23.298;2022-09-09T06:18:48;17.70;;;12.13;;
7835;SDS011;3963;42.658;23.298;2022-09-09T06:21:16;16.30;;;12.07;;
7835;SDS011;3963;42.658;23.298;2022-09-09T06:23:44;18.53;;;12.50;;
7835;SDS011;3963;42.658;23.298;2022-09-09T06:26:11;16.63;;;11.80;;
7835;SDS011;3963;42.658;23.298;2022-09-09T06:28:41;17.07;;;12.37;;
7835;SDS011;3963;42.658;23.298;2022-09-09T06:31:08;14.40;;;11.40;;
7835;SDS011;3963;42.658;23.298;2022-09-09T06:33:37;16.90;;;11.83;;
7835;SDS011;3963;42.658;23.298;2022-09-09T06:36:06;18.87;;;12.03;;
7835;SDS011;3963;42.658;23.298;2022-09-09T06:38:36;13.03;;;10.90;;
7835;SDS011;3963;42.658;23.298;2022-09-09T06:41:03;14.90;;;10.80;;
7835;SDS011;3963;42.658;23.298;2022-09-09T06:43:31;13.00;;;10.83;;
7835;SDS011;3963;42.658;23.298;2022-09-09T06:46:02;22.00;;;10.37;;
7835;SDS011;3963;42.658;23.298;2022-09-09T06:48:30;13.47;;;10.80;;
7835;SDS011;3963;42.658;23.298;2022-09-09T06:51:01;18.43;;;11.27;;
7835;SDS011;3963;42.658;23.298;2022-09-09T06:53:33;15.33;;;10.67;;
7835;SDS011;3963;42.658;23.298;2022-09-09T06:56:02;13.30;;;10.77;;
7835;SDS011;3963;42.658;23.298;2022-09-09T06:58:43;11.93;;;10.37;;
7835;SDS011;3963;42.658;23.298;2022-09-09T07:01:12;16.27;;;10.87;;
7835;SDS011;3963;42.658;23.298;2022-09-09T07:03:41;13.53;;;9.80;;
7835;SDS011;3963;42.658;23.298;2022-09-09T07:06:08;11.70;;;10.40;;
7835;SDS011;3963;42.658;23.298;2022-09-09T07:08:42;14.40;;;10.47;;
7835;SDS011;3963;42.658;23.298;2022-09-09T07:11:09;12.27;;;10.40;;
7835;SDS011;3963;42.658;23.298;2022-09-09T07:13:37;13.97;;;10.30;;
7835;SDS011;3963;42.658;23.298;2022-09-09T07:16:04;14.37;;;10.67;;
7835;SDS011;3963;42.658;23.298;2022-09-09T07:18:33;12.20;;;10.03;;
7835;SDS011;3963;42.658;23.298;2022-09-09T07:21:00;12.77;;;10.07;;
7835;SDS011;3963;42.658;23.298;2022-09-09T07:23:29;12.23;;;9.17;;
7835;SDS011;3963;42.658;23.298;2022-09-09T07:25:56;11.20;;;9.43;;
7835;SDS011;3963;42.658;23.298;2022-09-09T07:28:23;13.43;;;9.80;;
7835;SDS011;3963;42.658;23.298;2022-09-09T07:30:54;12.83;;;9.10;;
7835;SDS011;3963;42.658;23.298;2022-09-09T07:33:22;12.33;;;9.23;;
7835;SDS011;3963;42.658;23.298;2022-09-09T07:35:50;15.47;;;9.00;;
7835;SDS011;3963;42.658;23.298;2022-09-09T07:38:18;13.70;;;9.60;;
7835;SDS011;3963;42.658;23.298;2022-09-09T07:40:47;11.40;;;9.47;;
7835;SDS011;3963;42.658;23.298;2022-09-09T07:43:14;17.53;;;10.07;;
7835;SDS011;3963;42.658;23.298;2022-09-09T07:45:42;15.53;;;9.83;;
7835;SDS011;3963;42.658;23.298;2022-09-09T07:48:09;13.33;;;9.63;;
7835;SDS011;3963;42.658;23.298;2022-09-09T07:50:36;12.57;;;9.13;;
7835;SDS011;3963;42.658;23.298;2022-09-09T07:53:05;13.70;;;9.03;;
7835;SDS011;3963;42.658;23.298;2022-09-09T07:55:32;16.30;;;9.13;;
7835;SDS011;3963;42.658;23.298;2022-09-09T07:57:58;10.30;;;9.07;;
7835;SDS011;3963;42.658;23.298;2022-09-09T08:00:25;12.97;;;9.10;;
7835;SDS011;3963;42.658;23.298;2022-09-09T08:02:53;13.23;;;9.00;;
7835;SDS011;3963;42.658;23.298;2022-09-09T08:05:21;9.67;;;8.57;;
7835;SDS011;3963;42.658;23.298;2022-09-09T08:07:48;11.13;;;8.43;;
7835;SDS011;3963;42.658;23.298;2022-09-09T08:10:16;8.83;;;7.63;;
7835;SDS011;3963;42.658;23.298;2022-09-09T08:12:43;10.77;;;7.63;;
7835;SDS011;3963;42.658;23.298;2022-09-09T08:15:10;10.10;;;8.37;;
7835;SDS011;3963;42.658;23.298;2022-09-09T08:17:38;9.03;;;7.33;;
7835;SDS011;3963;42.658;23.298;2022-09-09T08:20:05;19.33;;;8.40;;
7835;SDS011;3963;42.658;23.298;2022-09-09T08:22:32;10.90;;;7.57;;
7835;SDS011;3963;42.658;23.298;2022-09-09T08:24:59;17.00;;;7.83;;
7835;SDS011;3963;42.658;23.298;2022-09-09T08:27:28;12.80;;;7.47;;
7835;SDS011;3963;42.658;23.298;2022-09-09T08:29:55;11.97;;;6.73;;
7835;SDS011;3963;42.658;23.298;2022-09-09T08:32:22;11.70;;;8.07;;
7835;SDS011;3963;42.658;23.298;2022-09-09T08:34:49;11.73;;;7.20;;
7835;SDS011;3963;42.658;23.298;2022-09-09T08:37:16;15.07;;;7.43;;
7835;SDS011;3963;42.658;23.298;2022-09-09T08:39:44;12.90;;;7.50;;
7835;SDS011;3963;42.658;23.298;2022-09-09T08:42:17;9.80;;;7.00;;
7835;SDS011;3963;42.658;23.298;2022-09-09T08:47:54;9.40;;;6.90;;
7835;SDS011;3963;42.658;23.298;2022-09-09T08:50:29;8.97;;;6.93;;
7835;SDS011;3963;42.658;23.298;2022-09-09T08:53:02;10.73;;;7.27;;
7835;SDS011;3963;42.658;23.298;2022-09-09T08:55:37;9.80;;;6.60;;
7835;SDS011;3963;42.658;23.298;2022-09-09T08:58:11;11.53;;;6.83;;
7835;SDS011;3963;42.658;23.298;2022-09-09T09:00:44;8.60;;;6.47;;
7835;SDS011;3963;42.658;23.298;2022-09-09T09:03:30;9.37;;;6.83;;
7835;SDS011;3963;42.658;23.298;2022-09-09T09:06:05;9.63;;;6.40;;
7835;SDS011;3963;42.658;23.298;2022-09-09T09:08:42;7.60;;;6.83;;
7835;SDS011;3963;42.658;23.298;2022-09-09T09:11:14;10.13;;;6.83;;
7835;SDS011;3963;42.658;23.298;2022-09-09T09:13:42;14.13;;;6.27;;
7835;SDS011;3963;42.658;23.298;2022-09-09T09:16:17;11.68;;;6.10;;
7835;SDS011;3963;42.658;23.298;2022-09-09T09:18:49;7.63;;;5.77;;
7835;SDS011;3963;42.658;23.298;2022-09-09T09:21:19;12.23;;;6.27;;
7835;SDS011;3963;42.658;23.298;2022-09-09T09:23:54;8.93;;;6.40;;
7835;SDS011;3963;42.658;23.298;2022-09-09T09:26:23;7.07;;;5.82;;
7835;SDS011;3963;42.658;23.298;2022-09-09T09:28:55;11.65;;;6.05;;
7835;SDS011;3963;42.658;23.298;2022-09-09T09:31:24;9.40;;;6.20;;
7835;SDS011;3963;42.658;23.298;2022-09-09T09:33:52;11.67;;;6.23;;
7835;SDS011;3963;42.658;23.298;2022-09-09T09:36:20;8.83;;;6.20;;
7835;SDS011;3963;42.658;23.298;2022-09-09T09:38:52;9.60;;;6.47;;
7835;SDS011;3963;42.658;23.298;2022-09-09T09:41:28;7.90;;;5.90;;
7835;SDS011;3963;42.658;23.298;2022-09-09T09:43:56;7.75;;;6.40;;
7835;SDS011;3963;42.658;23.298;2022-09-09T09:46:23;10.85;;;5.97;;
7835;SDS011;3963;42.658;23.298;2022-09-09T09:48:59;9.48;;;6.50;;
7835;SDS011;3963;42.658;23.298;2022-09-09T09:51:27;10.50;;;6.65;;
7835;SDS011;3963;42.658;23.298;2022-09-09T09:54:02;11.82;;;5.95;;
7835;SDS011;3963;42.658;23.298;2022-09-09T09:56:36;10.77;;;5.97;;
7835;SDS011;3963;42.658;23.298;2022-09-09T09:59:18;10.80;;;6.43;;
7835;SDS011;3963;42.658;23.298;2022-09-09T10:01:48;7.60;;;5.70;;
7835;SDS011;3963;42.658;23.298;2022-09-09T10:04:16;7.93;;;5.78;;
7835;SDS011;3963;42.658;23.298;2022-09-09T10:06:45;8.05;;;6.25;;
7835;SDS011;3963;42.658;23.298;2022-09-09T10:09:21;8.18;;;5.38;;
7835;SDS011;3963;42.658;23.298;2022-09-09T10:11:52;9.02;;;5.82;;
7835;SDS011;3963;42.658;23.298;2022-09-09T10:14:30;12.05;;;6.07;;
7835;SDS011;3963;42.658;23.298;2022-09-09T10:17:08;7.43;;;5.57;;
7835;SDS011;3963;42.658;23.298;2022-09-09T10:19:45;8.83;;;5.40;;
7835;SDS011;3963;42.658;23.298;2022-09-09T10:22:25;8.20;;;5.80;;
7835;SDS011;3963;42.658;23.298;2022-09-09T10:25:05;7.20;;;5.73;;
7835;SDS011;3963;42.658;23.298;2022-09-09T10:27:49;11.87;;;5.93;;
7835;SDS011;3963;42.658;23.298;2022-09-09T10:30:28;11.57;;;6.73;;
7835;SDS011;3963;42.658;23.298;2022-09-09T10:33:08;9.07;;;5.93;;
7835;SDS011;3963;42.658;23.298;2022-09-09T10:35:38;13.00;;;6.83;;
7835;SDS011;3963;42.658;23.298;2022-09-09T10:38:15;11.30;;;6.47;;
7835;SDS011;3963;42.658;23.298;2022-09-09T10:40:46;8.27;;;6.30;;
7835;SDS011;3963;42.658;23.298;2022-09-09T10:43:31;10.97;;;6.17;;
7835;SDS011;3963;42.658;23.298;2022-09-09T10:46:29;10.27;;;7.07;;
7835;SDS011;3963;42.658;23.298;2022-09-09T10:49:09;11.00;;;7.20;;
7835;SDS011;3963;42.658;23.298;2022-09-09T10:51:46;10.20;;;6.33;;
7835;SDS011;3963;42.658;23.298;2022-09-09T10:54:29;11.60;;;7.20;;
7835;SDS011;3963;42.658;23.298;2022-09-09T10:57:07;11.73;;;5.90;;
7835;SDS011;3963;42.658;23.298;2022-09-09T11:19:59;11.73;;;8.37;;
7835;SDS011;3963;42.658;23.298;2022-09-09T11:22:27;13.77;;;8.07;;
7835;SDS011;3963;42.658;23.298;2022-09-09T11:25:00;14.30;;;8.63;;
7835;SDS011;3963;42.658;23.298;2022-09-09T11:27:32;12.73;;;7.23;;
7835;SDS011;3963;42.658;23.298;2022-09-09T11:30:10;11.07;;;7.83;;
7835;SDS011;3963;42.658;23.298;2022-09-09T11:33:01;18.23;;;7.50;;
7835;SDS011;3963;42.658;23.298;2022-09-09T11:35:50;13.40;;;8.83;;
7835;SDS011;3963;42.658;23.298;2022-09-09T11:38:32;10.90;;;7.57;;
7835;SDS011;3963;42.658;23.298;2022-09-09T11:41:07;11.67;;;7.63;;
7835;SDS011;3963;42.658;23.298;2022-09-09T11:43:38;11.83;;;7.80;;
7835;SDS011;3963;42.658;23.298;2022-09-09T11:46:07;12.77;;;7.63;;
7835;SDS011;3963;42.658;23.298;2022-09-09T11:48:36;9.10;;;7.63;;
7835;SDS011;3963;42.658;23.298;2022-09-09T11:51:10;12.80;;;8.00;;
7835;SDS011;3963;42.658;23.298;2022-09-09T11:53:48;18.30;;;8.10;;
7835;SDS011;3963;42.658;23.298;2022-09-09T11:56:26;19.77;;;8.80;;
7835;SDS011;3963;42.658;23.298;2022-09-09T11:59:00;13.93;;;8.50;;
7835;SDS011;3963;42.658;23.298;2022-09-09T12:01:29;15.47;;;8.30;;
7835;SDS011;3963;42.658;23.298;2022-09-09T12:04:11;19.20;;;8.77;;
7835;SDS011;3963;42.658;23.298;2022-09-09T12:07:00;15.20;;;7.63;;
7835;SDS011;3963;42.658;23.298;2022-09-09T12:09:36;12.80;;;8.60;;
7835;SDS011;3963;42.658;23.298;2022-09-09T12:12:26;11.33;;;8.57;;
7835;SDS011;3963;42.658;23.298;2022-09-09T12:14:55;13.27;;;7.93;;
7835;SDS011;3963;42.658;23.298;2022-09-09T12:17:26;18.00;;;8.20;;
7835;SDS011;3963;42.658;23.298;2022-09-09T12:20:08;15.60;;;8.17;;
7835;SDS011;3963;42.658;23.298;2022-09-09T12:22:43;12.60;;;7.63;;
7835;SDS011;3963;42.658;23.298;2022-09-09T12:25:23;15.90;;;8.10;;
7835;SDS011;3963;42.658;23.298;2022-09-09T12:27:59;9.63;;;7.97;;
7835;SDS011;3963;42.658;23.298;2022-09-09T12:30:34;12.03;;;7.27;;
7835;SDS011;3963;42.658;23.298;2022-09-09T12:33:09;11.97;;;8.13;;
7835;SDS011;3963;42.658;23.298;2022-09-09T12:35:38;10.97;;;7.83;;
7835;SDS011;3963;42.658;23.298;2022-09-09T12:38:11;20.67;;;9.50;;
7835;SDS011;3963;42.658;23.298;2022-09-09T12:40:53;18.83;;;8.50;;
7835;SDS011;3963;42.658;23.298;2022-09-09T12:43:22;12.13;;;8.20;;
7835;SDS011;3963;42.658;23.298;2022-09-09T12:45:49;10.90;;;8.23;;
7835;SDS011;3963;42.658;23.298;2022-09-09T12:48:22;11.87;;;8.70;;
7835;SDS011;3963;42.658;23.298;2022-09-09T12:50:55;12.60;;;7.63;;
7835;SDS011;3963;42.658;23.298;2022-09-09T12:53:24;10.83;;;8.00;;
7835;SDS011;3963;42.658;23.298;2022-09-09T12:55:56;10.93;;;7.83;;
7835;SDS011;3963;42.658;23.298;2022-09-09T12:58:25;11.47;;;8.23;;
7835;SDS011;3963;42.658;23.298;2022-09-09T13:00:58;14.30;;;7.83;;
7835;SDS011;3963;42.658;23.298;2022-09-09T13:03:25;11.33;;;7.30;;
7835;SDS011;3963;42.658;23.298;2022-09-09T13:05:53;12.50;;;7.63;;
7835;SDS011;3963;42.658;23.298;2022-09-09T13:08:25;13.70;;;9.67;;
7835;SDS011;3963;42.658;23.298;2022-09-09T13:10:53;10.87;;;7.77;;
7835;SDS011;3963;42.658;23.298;2022-09-09T13:13:23;10.83;;;7.77;;
7835;SDS011;3963;42.658;23.298;2022-09-09T13:15:55;12.37;;;8.37;;
7835;SDS011;3963;42.658;23.298;2022-09-09T13:18:23;14.93;;;8.03;;
7835;SDS011;3963;42.658;23.298;2022-09-09T13:20:53;12.33;;;8.07;;
7835;SDS011;3963;42.658;23.298;2022-09-09T13:23:21;12.87;;;7.93;;
7835;SDS011;3963;42.658;23.298;2022-09-09T13:25:56;17.20;;;8.27;;
7835;SDS011;3963;42.658;23.298;2022-09-09T13:28:25;13.03;;;7.70;;
7835;SDS011;3963;42.658;23.298;2022-09-09T13:30:56;17.73;;;8.70;;
7835;SDS011;3963;42.658;23.298;2022-09-09T13:33:33;15.93;;;9.33;;
7835;SDS011;3963;42.658;23.298;2022-09-09T13:36:02;13.23;;;7.43;;
7835;SDS011;3963;42.658;23.298;2022-09-09T13:38:32;13.80;;;7.57;;
7835;SDS011;3963;42.658;23.298;2022-09-09T13:41:04;24.20;;;8.40;;
7835;SDS011;3963;42.658;23.298;2022-09-09T13:43:34;15.03;;;8.17;;
7835;SDS011;3963;42.658;23.298;2022-09-09T13:46:04;14.77;;;8.50;;
7835;SDS011;3963;42.658;23.298;2022-09-09T13:48:53;14.20;;;8.33;;
7835;SDS011;3963;42.658;23.298;2022-09-09T13:51:22;16.40;;;7.90;;
7835;SDS011;3963;42.658;23.298;2022-09-09T13:53:56;10.97;;;7.50;;
7835;SDS011;3963;42.658;23.298;2022-09-09T13:56:26;14.27;;;8.37;;
7835;SDS011;3963;42.658;23.298;2022-09-09T13:58:54;17.30;;;8.27;;
7835;SDS011;3963;42.658;23.298;2022-09-09T14:01:20;12.60;;;8.83;;
7835;SDS011;3963;42.658;23.298;2022-09-09T14:03:48;18.73;;;8.30;;
7835;SDS011;3963;42.658;23.298;2022-09-09T14:06:15;13.47;;;8.70;;
7835;SDS011;3963;42.658;23.298;2022-09-09T14:08:43;10.80;;;7.13;;
7835;SDS011;3963;42.658;23.298;2022-09-09T14:11:12;10.77;;;7.60;;
7835;SDS011;3963;42.658;23.298;2022-09-09T14:13:41;10.87;;;7.50;;
7835;SDS011;3963;42.658;23.298;2022-09-09T14:16:07;11.13;;;7.60;;
7835;SDS011;3963;42.658;23.298;2022-09-09T14:18:34;10.97;;;7.23;;
7835;SDS011;3963;42.658;23.298;2022-09-09T14:21:02;10.10;;;7.17;;
7835;SDS011;3963;42.658;23.298;2022-09-09T14:23:29;18.67;;;8.03;;
7835;SDS011;3963;42.658;23.298;2022-09-09T14:25:57;15.17;;;8.67;;
7835;SDS011;3963;42.658;23.298;2022-09-09T14:28:24;11.23;;;8.57;;
7835;SDS011;3963;42.658;23.298;2022-09-09T14:30:52;12.33;;;8.27;;
7835;SDS011;3963;42.658;23.298;2022-09-09T14:33:18;13.07;;;7.93;;
7835;SDS011;3963;42.658;23.298;2022-09-09T14:35:46;13.43;;;7.90;;
7835;SDS011;3963;42.658;23.298;2022-09-09T14:38:13;10.43;;;7.53;;
7835;SDS011;3963;42.658;23.298;2022-09-09T14:40:40;12.40;;;8.13;;
7835;SDS011;3963;42.658;23.298;2022-09-09T14:43:09;17.40;;;8.37;;
7835;SDS011;3963;42.658;23.298;2022-09-09T14:45:37;17.80;;;8.33;;
7835;SDS011;3963;42.658;23.298;2022-09-09T14:48:05;11.07;;;8.00;;
7835;SDS011;3963;42.658;23.298;2022-09-09T14:50:32;13.20;;;8.60;;
7835;SDS011;3963;42.658;23.298;2022-09-09T14:53:00;9.53;;;8.07;;
7835;SDS011;3963;42.658;23.298;2022-09-09T14:55:26;13.03;;;8.47;;
7835;SDS011;3963;42.658;23.298;2022-09-09T14:57:54;10.53;;;7.90;;
7835;SDS011;3963;42.658;23.298;2022-09-09T15:00:20;14.13;;;7.70;;
7835;SDS011;3963;42.658;23.298;2022-09-09T15:02:47;13.20;;;8.03;;
7835;SDS011;3963;42.658;23.298;2022-09-09T15:05:19;15.37;;;8.43;;
7835;SDS011;3963;42.658;23.298;2022-09-09T15:07:46;17.30;;;7.97;;
7835;SDS011;3963;42.658;23.298;2022-09-09T15:10:14;17.13;;;8.27;;
7835;SDS011;3963;42.658;23.298;2022-09-09T15:12:42;14.73;;;8.30;;
7835;SDS011;3963;42.658;23.298;2022-09-09T15:15:10;12.47;;;8.00;;
7835;SDS011;3963;42.658;23.298;2022-09-09T15:17:37;17.03;;;8.07;;
7835;SDS011;3963;42.658;23.298;2022-09-09T15:20:04;13.50;;;7.60;;
7835;SDS011;3963;42.658;23.298;2022-09-09T15:22:33;14.00;;;8.37;;
7835;SDS011;3963;42.658;23.298;2022-09-09T15:25:01;9.10;;;7.60;;
7835;SDS011;3963;42.658;23.298;2022-09-09T15:27:28;25.80;;;8.90;;
7835;SDS011;3963;42.658;23.298;2022-09-09T15:29:56;22.17;;;8.53;;
7835;SDS011;3963;42.658;23.298;2022-09-09T15:32:23;16.27;;;8.43;;